sensor_id;sensor_type;location;lat;lon;timestamp;temperature;humidity
47961;DHT22;33721;48.852;9.936;2023-02-01T00:00:15;2.80;99.90
47961;DHT22;33721;48.852;9.936;2023-02-01T00:02:41;2.90;99.90
47961;DHT22;33721;48.852;9.936;2023-02-01T00:05:08;2.90;99.90
47961;DHT22;33721;48.852;9.936;2023-02-01T00:07:36;2.90;99.90
47961;DHT22;33721;48.852;9.936;2023-02-01T00:10:02;2.90;99.90
47961;DHT22;33721;48.852;9.936;2023-02-01T00:12:29;2.90;99.90
47961;DHT22;33721;48.852;9.936;2023-02-01T00:14:54;2.90;99.90
47961;DHT22;33721;48.852;9.936;2023-02-01T00:17:20;2.90;99.90
47961;DHT22;33721;48.852;9.936;2023-02-01T00:19:46;2.90;99.90
47961;DHT22;33721;48.852;9.936;2023-02-01T00:22:11;2.90;99.90
47961;DHT22;33721;48.852;9.936;2023-02-01T00:24:37;3.00;99.90
47961;DHT22;33721;48.852;9.936;2023-02-01T00:27:03;3.00;99.90
47961;DHT22;33721;48.852;9.936;2023-02-01T00:29:28;3.10;99.90
47961;DHT22;33721;48.852;9.936;2023-02-01T00:31:54;3.10;99.90
47961;DHT22;33721;48.852;9.936;2023-02-01T00:34:20;3.10;99.90
47961;DHT22;33721;48.852;9.936;2023-02-01T00:36:46;3.10;99.90
47961;DHT22;33721;48.852;9.936;2023-02-01T00:39:13;3.10;99.90
47961;DHT22;33721;48.852;9.936;2023-02-01T00:41:38;3.10;99.90
47961;DHT22;33721;48.852;9.936;2023-02-01T00:44:05;3.20;99.90
47961;DHT22;33721;48.852;9.936;2023-02-01T00:46:31;3.20;99.90
47961;DHT22;33721;48.852;9.936;2023-02-01T00:48:57;3.20;99.90
47961;DHT22;33721;48.852;9.936;2023-02-01T00:51:25;3.20;99.90
47961;DHT22;33721;48.852;9.936;2023-02-01T00:53:52;3.20;99.90
47961;DHT22;33721;48.852;9.936;2023-02-01T00:56:18;3.20;99.90
47961;DHT22;33721;48.852;9.936;2023-02-01T00:58:44;3.20;99.90
47961;DHT22;33721;48.852;9.936;2023-02-01T01:01:11;3.30;99.90
47961;DHT22;33721;48.852;9.936;2023-02-01T01:03:39;3.30;99.90
47961;DHT22;33721;48.852;9.936;2023-02-01T01:06:09;3.30;99.90
47961;DHT22;33721;48.852;9.936;2023-02-01T01:08:35;3.30;99.90
47961;DHT22;33721;48.852;9.936;2023-02-01T01:11:09;3.30;99.90
47961;DHT22;33721;48.852;9.936;2023-02-01T01:13:36;3.30;99.90
47961;DHT22;33721;48.852;9.936;2023-02-01T01:16:03;3.30;99.90
47961;DHT22;33721;48.852;9.936;2023-02-01T01:18:31;3.30;99.90
47961;DHT22;33721;48.852;9.936;2023-02-01T01:20:57;3.30;99.90
47961;DHT22;33721;48.852;9.936;2023-02-01T01:23:23;3.30;99.90
47961;DHT22;33721;48.852;9.936;2023-02-01T01:25:49;3.20;99.90
47961;DHT22;33721;48.852;9.936;2023-02-01T01:28:15;3.20;99.90
47961;DHT22;33721;48.852;9.936;2023-02-01T01:30:40;3.20;99.90
47961;DHT22;33721;48.852;9.936;2023-02-01T01:33:06;3.20;99.90
47961;DHT22;33721;48.852;9.936;2023-02-01T01:35:32;3.20;99.90
47961;DHT22;33721;48.852;9.936;2023-02-01T01:37:59;3.20;99.90
47961;DHT22;33721;48.852;9.936;2023-02-01T01:40:25;3.20;99.90
47961;DHT22;33721;48.852;9.936;2023-02-01T01:42:51;3.20;99.90
47961;DHT22;33721;48.852;9.936;2023-02-01T01:45:27;3.20;99.90
47961;DHT22;33721;48.852;9.936;2023-02-01T01:47:56;3.20;99.90
47961;DHT22;33721;48.852;9.936;2023-02-01T01:50:27;3.20;99.90
47961;DHT22;33721;48.852;9.936;2023-02-01T01:52:55;3.20;99.90
47961;DHT22;33721;48.852;9.936;2023-02-01T01:55:25;3.20;99.90
47961;DHT22;33721;48.852;9.936;2023-02-01T01:57:56;3.20;99.90
47961;DHT22;33721;48.852;9.936;2023-02-01T02:00:23;3.20;99.90
47961;DHT22;33721;48.852;9.936;2023-02-01T02:02:54;3.20;99.90
47961;DHT22;33721;48.852;9.936;2023-02-01T02:05:22;3.20;99.90
47961;DHT22;33721;48.852;9.936;2023-02-01T02:07:50;3.20;99.90
47961;DHT22;33721;48.852;9.936;2023-02-01T02:10:16;3.20;99.90
47961;DHT22;33721;48.852;9.936;2023-02-01T02:12:46;3.20;99.90
47961;DHT22;33721;48.852;9.936;2023-02-01T02:15:14;3.20;99.90
47961;DHT22;33721;48.852;9.936;2023-02-01T02:18:01;3.20;99.90
47961;DHT22;33721;48.852;9.936;2023-02-01T02:39:21;3.30;99.90
47961;DHT22;33721;48.852;9.936;2023-02-01T02:42:00;3.30;99.90
47961;DHT22;33721;48.852;9.936;2023-02-01T02:45:04;3.20;99.90
47961;DHT22;33721;48.852;9.936;2023-02-01T02:53:52;3.30;99.90
47961;DHT22;33721;48.852;9.936;2023-02-01T02:56:40;3.20;99.90
47961;DHT22;33721;48.852;9.936;2023-02-01T02:59:26;3.20;99.90
47961;DHT22;33721;48.852;9.936;2023-02-01T03:02:13;3.20;99.90
47961;DHT22;33721;48.852;9.936;2023-02-01T03:04:57;3.20;99.90
47961;DHT22;33721;48.852;9.936;2023-02-01T03:10:11;3.30;99.90
47961;DHT22;33721;48.852;9.936;2023-02-01T03:12:39;3.30;99.90
47961;DHT22;33721;48.852;9.936;2023-02-01T03:15:53;3.30;99.90
47961;DHT22;33721;48.852;9.936;2023-02-01T03:21:12;3.40;99.90
47961;DHT22;33721;48.852;9.936;2023-02-01T03:23:39;3.40;99.90
47961;DHT22;33721;48.852;9.936;2023-02-01T03:26:08;3.40;99.90
47961;DHT22;33721;48.852;9.936;2023-02-01T03:28:36;3.40;99.90
47961;DHT22;33721;48.852;9.936;2023-02-01T03:31:04;3.40;99.90
47961;DHT22;33721;48.852;9.936;2023-02-01T03:33:30;3.40;99.90
47961;DHT22;33721;48.852;9.936;2023-02-01T03:39:15;3.40;99.90
47961;DHT22;33721;48.852;9.936;2023-02-01T03:41:51;3.50;99.90
47961;DHT22;33721;48.852;9.936;2023-02-01T03:44:38;3.40;99.90
47961;DHT22;33721;48.852;9.936;2023-02-01T03:47:22;3.30;99.90
47961;DHT22;33721;48.852;9.936;2023-02-01T03:49:55;3.40;99.90
47961;DHT22;33721;48.852;9.936;2023-02-01T03:52:51;3.50;99.90
47961;DHT22;33721;48.852;9.936;2023-02-01T03:55:19;3.50;99.90
47961;DHT22;33721;48.852;9.936;2023-02-01T03:57:55;3.50;99.90
47961;DHT22;33721;48.852;9.936;2023-02-01T04:00:24;3.50;99.90
47961;DHT22;33721;48.852;9.936;2023-02-01T04:02:51;3.50;99.90
47961;DHT22;33721;48.852;9.936;2023-02-01T04:05:17;3.50;99.90
47961;DHT22;33721;48.852;9.936;2023-02-01T04:07:43;3.50;99.90
47961;DHT22;33721;48.852;9.936;2023-02-01T04:10:09;3.50;99.90
47961;DHT22;33721;48.852;9.936;2023-02-01T04:12:35;3.50;99.90
47961;DHT22;33721;48.852;9.936;2023-02-01T04:15:01;3.50;99.90
47961;DHT22;33721;48.852;9.936;2023-02-01T04:17:26;3.50;99.90
47961;DHT22;33721;48.852;9.936;2023-02-01T04:19:52;3.50;99.90
47961;DHT22;33721;48.852;9.936;2023-02-01T04:22:18;3.50;99.90
47961;DHT22;33721;48.852;9.936;2023-02-01T04:24:43;3.50;99.90
47961;DHT22;33721;48.852;9.936;2023-02-01T04:27:09;3.50;99.90
47961;DHT22;33721;48.852;9.936;2023-02-01T04:29:34;3.50;99.90
47961;DHT22;33721;48.852;9.936;2023-02-01T04:32:00;3.50;99.90
47961;DHT22;33721;48.852;9.936;2023-02-01T04:34:26;3.50;99.90
47961;DHT22;33721;48.852;9.936;2023-02-01T04:36:52;3.50;99.90
47961;DHT22;33721;48.852;9.936;2023-02-01T04:39:17;3.50;99.90
47961;DHT22;33721;48.852;9.936;2023-02-01T04:41:43;3.50;99.90
47961;DHT22;33721;48.852;9.936;2023-02-01T04:44:14;3.50;99.90
47961;DHT22;33721;48.852;9.936;2023-02-01T04:46:41;3.50;99.90
47961;DHT22;33721;48.852;9.936;2023-02-01T04:49:11;3.60;99.90
47961;DHT22;33721;48.852;9.936;2023-02-01T04:51:38;3.50;99.90
47961;DHT22;33721;48.852;9.936;2023-02-01T04:54:04;3.60;99.90
47961;DHT22;33721;48.852;9.936;2023-02-01T04:56:29;3.60;99.90
47961;DHT22;33721;48.852;9.936;2023-02-01T04:58:55;3.60;99.90
47961;DHT22;33721;48.852;9.936;2023-02-01T05:01:22;3.60;99.90
47961;DHT22;33721;48.852;9.936;2023-02-01T05:03:50;3.60;99.90
47961;DHT22;33721;48.852;9.936;2023-02-01T05:06:16;3.60;99.90
47961;DHT22;33721;48.852;9.936;2023-02-01T05:08:41;3.60;99.90
47961;DHT22;33721;48.852;9.936;2023-02-01T05:11:07;3.60;99.90
47961;DHT22;33721;48.852;9.936;2023-02-01T05:13:53;3.60;99.90
47961;DHT22;33721;48.852;9.936;2023-02-01T05:16:18;3.70;99.90
47961;DHT22;33721;48.852;9.936;2023-02-01T05:18:44;3.70;99.90
47961;DHT22;33721;48.852;9.936;2023-02-01T05:21:10;3.70;99.90
47961;DHT22;33721;48.852;9.936;2023-02-01T05:23:35;3.70;99.90
47961;DHT22;33721;48.852;9.936;2023-02-01T05:26:21;3.60;99.90
47961;DHT22;33721;48.852;9.936;2023-02-01T05:28:46;3.70;99.90
47961;DHT22;33721;48.852;9.936;2023-02-01T05:31:12;3.70;99.90
47961;DHT22;33721;48.852;9.936;2023-02-01T05:33:38;3.70;99.90
47961;DHT22;33721;48.852;9.936;2023-02-01T05:36:03;3.70;99.90
47961;DHT22;33721;48.852;9.936;2023-02-01T05:38:29;3.70;99.90
47961;DHT22;33721;48.852;9.936;2023-02-01T05:40:58;3.80;99.90
47961;DHT22;33721;48.852;9.936;2023-02-01T05:43:23;3.70;99.90
47961;DHT22;33721;48.852;9.936;2023-02-01T05:45:51;3.70;99.90
47961;DHT22;33721;48.852;9.936;2023-02-01T05:48:16;3.80;99.90
47961;DHT22;33721;48.852;9.936;2023-02-01T05:50:43;3.80;99.90
47961;DHT22;33721;48.852;9.936;2023-02-01T05:53:09;3.70;99.90
47961;DHT22;33721;48.852;9.936;2023-02-01T05:55:34;3.80;99.90
47961;DHT22;33721;48.852;9.936;2023-02-01T05:58:01;3.80;99.90
47961;DHT22;33721;48.852;9.936;2023-02-01T06:00:26;3.80;99.90
47961;DHT22;33721;48.852;9.936;2023-02-01T06:02:52;3.80;99.90
47961;DHT22;33721;48.852;9.936;2023-02-01T06:05:18;3.80;99.90
47961;DHT22;33721;48.852;9.936;2023-02-01T06:07:43;3.80;99.90
47961;DHT22;33721;48.852;9.936;2023-02-01T06:10:09;3.80;99.90
47961;DHT22;33721;48.852;9.936;2023-02-01T06:12:35;3.80;99.90
47961;DHT22;33721;48.852;9.936;2023-02-01T06:15:01;3.90;99.90
47961;DHT22;33721;48.852;9.936;2023-02-01T06:17:26;3.80;99.90
47961;DHT22;33721;48.852;9.936;2023-02-01T06:19:52;3.80;99.90
47961;DHT22;33721;48.852;9.936;2023-02-01T06:22:18;3.80;99.90
47961;DHT22;33721;48.852;9.936;2023-02-01T06:24:43;3.80;99.90
47961;DHT22;33721;48.852;9.936;2023-02-01T06:27:09;3.90;99.90
47961;DHT22;33721;48.852;9.936;2023-02-01T06:29:35;3.80;99.90
47961;DHT22;33721;48.852;9.936;2023-02-01T06:32:01;3.90;99.90
47961;DHT22;33721;48.852;9.936;2023-02-01T06:34:28;3.80;99.90
47961;DHT22;33721;48.852;9.936;2023-02-01T06:36:54;3.80;99.90
47961;DHT22;33721;48.852;9.936;2023-02-01T06:39:20;3.80;99.90
47961;DHT22;33721;48.852;9.936;2023-02-01T06:41:50;3.80;99.90
47961;DHT22;33721;48.852;9.936;2023-02-01T06:44:16;3.80;99.90
47961;DHT22;33721;48.852;9.936;2023-02-01T06:46:41;3.80;99.90
47961;DHT22;33721;48.852;9.936;2023-02-01T06:49:07;3.80;99.90
47961;DHT22;33721;48.852;9.936;2023-02-01T06:51:33;3.80;99.90
47961;DHT22;33721;48.852;9.936;2023-02-01T06:54:00;3.80;99.90
47961;DHT22;33721;48.852;9.936;2023-02-01T06:56:26;3.80;99.90
47961;DHT22;33721;48.852;9.936;2023-02-01T06:58:53;3.80;99.90
47961;DHT22;33721;48.852;9.936;2023-02-01T07:01:19;3.90;99.90
47961;DHT22;33721;48.852;9.936;2023-02-01T07:03:51;3.90;99.90
47961;DHT22;33721;48.852;9.936;2023-02-01T07:06:17;3.80;99.90
47961;DHT22;33721;48.852;9.936;2023-02-01T07:08:43;3.80;99.90
47961;DHT22;33721;48.852;9.936;2023-02-01T07:11:12;3.80;99.90
47961;DHT22;33721;48.852;9.936;2023-02-01T07:13:38;3.80;99.90
47961;DHT22;33721;48.852;9.936;2023-02-01T07:16:06;3.80;99.90
47961;DHT22;33721;48.852;9.936;2023-02-01T07:18:32;3.80;99.90
47961;DHT22;33721;48.852;9.936;2023-02-01T07:20:58;3.80;99.90
47961;DHT22;33721;48.852;9.936;2023-02-01T07:23:24;3.80;99.90
47961;DHT22;33721;48.852;9.936;2023-02-01T07:25:58;3.90;99.90
47961;DHT22;33721;48.852;9.936;2023-02-01T07:28:25;3.80;99.90
47961;DHT22;33721;48.852;9.936;2023-02-01T07:30:51;3.90;99.90
47961;DHT22;33721;48.852;9.936;2023-02-01T07:33:22;3.80;99.90
47961;DHT22;33721;48.852;9.936;2023-02-01T07:35:49;3.80;99.90
47961;DHT22;33721;48.852;9.936;2023-02-01T07:38:15;3.80;99.90
47961;DHT22;33721;48.852;9.936;2023-02-01T07:40:41;3.80;99.90
47961;DHT22;33721;48.852;9.936;2023-02-01T07:43:07;3.80;99.90
47961;DHT22;33721;48.852;9.936;2023-02-01T07:45:34;3.70;99.90
47961;DHT22;33721;48.852;9.936;2023-02-01T07:48:00;3.70;99.90
47961;DHT22;33721;48.852;9.936;2023-02-01T07:50:26;3.70;99.90
47961;DHT22;33721;48.852;9.936;2023-02-01T07:52:52;3.80;99.90
47961;DHT22;33721;48.852;9.936;2023-02-01T07:55:19;3.70;99.90
47961;DHT22;33721;48.852;9.936;2023-02-01T07:57:45;3.70;99.90
47961;DHT22;33721;48.852;9.936;2023-02-01T08:00:11;3.70;99.90
47961;DHT22;33721;48.852;9.936;2023-02-01T08:02:58;3.70;99.90
47961;DHT22;33721;48.852;9.936;2023-02-01T08:05:24;3.60;99.90
47961;DHT22;33721;48.852;9.936;2023-02-01T08:07:49;3.60;99.90
47961;DHT22;33721;48.852;9.936;2023-02-01T08:10:16;3.60;99.90
47961;DHT22;33721;48.852;9.936;2023-02-01T08:12:42;3.60;99.90
47961;DHT22;33721;48.852;9.936;2023-02-01T08:15:07;3.50;99.90
47961;DHT22;33721;48.852;9.936;2023-02-01T08:17:33;3.60;99.90
47961;DHT22;33721;48.852;9.936;2023-02-01T08:19:59;3.60;99.90
47961;DHT22;33721;48.852;9.936;2023-02-01T08:22:24;3.60;99.90
47961;DHT22;33721;48.852;9.936;2023-02-01T08:24:50;3.60;99.90
47961;DHT22;33721;48.852;9.936;2023-02-01T08:27:17;3.50;99.90
47961;DHT22;33721;48.852;9.936;2023-02-01T08:29:43;3.50;99.90
47961;DHT22;33721;48.852;9.936;2023-02-01T08:32:09;3.50;99.90
47961;DHT22;33721;48.852;9.936;2023-02-01T08:34:34;3.50;99.90
47961;DHT22;33721;48.852;9.936;2023-02-01T08:37:00;3.50;99.90
47961;DHT22;33721;48.852;9.936;2023-02-01T08:39:26;3.50;99.90
47961;DHT22;33721;48.852;9.936;2023-02-01T08:41:52;3.50;99.90
47961;DHT22;33721;48.852;9.936;2023-02-01T08:44:36;3.50;99.90
47961;DHT22;33721;48.852;9.936;2023-02-01T08:47:02;3.50;99.90
47961;DHT22;33721;48.852;9.936;2023-02-01T08:49:28;3.50;99.90
47961;DHT22;33721;48.852;9.936;2023-02-01T08:51:54;3.50;99.90
47961;DHT22;33721;48.852;9.936;2023-02-01T08:54:21;3.40;99.90
47961;DHT22;33721;48.852;9.936;2023-02-01T08:56:46;3.50;99.90
47961;DHT22;33721;48.852;9.936;2023-02-01T08:59:12;3.50;99.90
47961;DHT22;33721;48.852;9.936;2023-02-01T09:01:38;3.40;99.90
47961;DHT22;33721;48.852;9.936;2023-02-01T09:04:03;3.50;99.90
47961;DHT22;33721;48.852;9.936;2023-02-01T09:06:29;3.50;99.90
47961;DHT22;33721;48.852;9.936;2023-02-01T09:08:55;3.50;99.90
47961;DHT22;33721;48.852;9.936;2023-02-01T09:11:21;3.50;99.90
47961;DHT22;33721;48.852;9.936;2023-02-01T09:13:49;3.60;99.90
47961;DHT22;33721;48.852;9.936;2023-02-01T09:16:15;3.60;99.90
47961;DHT22;33721;48.852;9.936;2023-02-01T09:18:40;3.70;99.90
47961;DHT22;33721;48.852;9.936;2023-02-01T09:21:06;3.70;99.90
47961;DHT22;33721;48.852;9.936;2023-02-01T09:23:33;3.70;99.90
47961;DHT22;33721;48.852;9.936;2023-02-01T09:25:59;3.80;99.90
47961;DHT22;33721;48.852;9.936;2023-02-01T09:28:25;3.80;99.90
47961;DHT22;33721;48.852;9.936;2023-02-01T09:30:56;3.80;99.90
47961;DHT22;33721;48.852;9.936;2023-02-01T09:33:22;3.90;99.90
47961;DHT22;33721;48.852;9.936;2023-02-01T09:35:58;4.00;99.90
47961;DHT22;33721;48.852;9.936;2023-02-01T09:38:24;4.00;99.90
47961;DHT22;33721;48.852;9.936;2023-02-01T09:40:52;4.00;99.90
47961;DHT22;33721;48.852;9.936;2023-02-01T09:43:29;4.00;99.90
47961;DHT22;33721;48.852;9.936;2023-02-01T09:48:47;4.00;99.90
47961;DHT22;33721;48.852;9.936;2023-02-01T09:51:20;4.00;99.90
47961;DHT22;33721;48.852;9.936;2023-02-01T09:54:03;4.10;99.90
47961;DHT22;33721;48.852;9.936;2023-02-01T09:59:41;4.10;99.90
47961;DHT22;33721;48.852;9.936;2023-02-01T10:02:34;4.20;99.90
47961;DHT22;33721;48.852;9.936;2023-02-01T10:05:03;4.30;99.90
47961;DHT22;33721;48.852;9.936;2023-02-01T10:24:07;4.30;99.90
47961;DHT22;33721;48.852;9.936;2023-02-01T10:26:44;4.20;99.90
47961;DHT22;33721;48.852;9.936;2023-02-01T10:29:34;4.20;99.90
47961;DHT22;33721;48.852;9.936;2023-02-01T10:32:02;4.10;99.90
47961;DHT22;33721;48.852;9.936;2023-02-01T10:34:31;4.10;99.90
47961;DHT22;33721;48.852;9.936;2023-02-01T10:39:54;4.10;99.90
47961;DHT22;33721;48.852;9.936;2023-02-01T10:42:28;4.20;99.90
47961;DHT22;33721;48.852;9.936;2023-02-01T10:44:57;4.20;99.90
47961;DHT22;33721;48.852;9.936;2023-02-01T10:47:24;4.30;99.90
47961;DHT22;33721;48.852;9.936;2023-02-01T10:49:57;4.30;99.90
47961;DHT22;33721;48.852;9.936;2023-02-01T10:54:55;4.30;99.90
47961;DHT22;33721;48.852;9.936;2023-02-01T10:57:24;4.30;99.90
47961;DHT22;33721;48.852;9.936;2023-02-01T10:59:51;4.20;99.90
47961;DHT22;33721;48.852;9.936;2023-02-01T11:02:33;4.20;99.90
47961;DHT22;33721;48.852;9.936;2023-02-01T11:05:09;4.30;99.90
47961;DHT22;33721;48.852;9.936;2023-02-01T11:07:39;4.20;99.90
47961;DHT22;33721;48.852;9.936;2023-02-01T11:10:06;4.30;99.90
47961;DHT22;33721;48.852;9.936;2023-02-01T11:12:34;4.30;99.90
47961;DHT22;33721;48.852;9.936;2023-02-01T11:15:21;4.40;99.90
47961;DHT22;33721;48.852;9.936;2023-02-01T11:17:50;4.30;99.90
47961;DHT22;33721;48.852;9.936;2023-02-01T11:22:59;4.40;99.90
47961;DHT22;33721;48.852;9.936;2023-02-01T11:25:25;4.50;99.90
47961;DHT22;33721;48.852;9.936;2023-02-01T11:27:53;4.50;99.90
47961;DHT22;33721;48.852;9.936;2023-02-01T11:30:38;4.60;99.90
47961;DHT22;33721;48.852;9.936;2023-02-01T11:33:06;4.50;99.90
47961;DHT22;33721;48.852;9.936;2023-02-01T11:35:37;4.50;99.90
47961;DHT22;33721;48.852;9.936;2023-02-01T11:38:21;4.50;99.90
47961;DHT22;33721;48.852;9.936;2023-02-01T11:40:47;4.50;99.90
47961;DHT22;33721;48.852;9.936;2023-02-01T11:43:26;4.60;99.90
47961;DHT22;33721;48.852;9.936;2023-02-01T11:45:57;4.60;99.90
47961;DHT22;33721;48.852;9.936;2023-02-01T11:48:23;4.60;99.90
47961;DHT22;33721;48.852;9.936;2023-02-01T11:56:34;4.60;99.90
47961;DHT22;33721;48.852;9.936;2023-02-01T12:07:19;4.60;99.90
47961;DHT22;33721;48.852;9.936;2023-02-01T12:10:15;4.60;99.90
47961;DHT22;33721;48.852;9.936;2023-02-01T12:12:47;4.70;99.90
47961;DHT22;33721;48.852;9.936;2023-02-01T12:15:33;4.80;99.90
47961;DHT22;33721;48.852;9.936;2023-02-01T12:18:15;5.00;99.90
47961;DHT22;33721;48.852;9.936;2023-02-01T12:21:04;5.00;99.90
47961;DHT22;33721;48.852;9.936;2023-02-01T12:24:44;4.90;99.90
47961;DHT22;33721;48.852;9.936;2023-02-01T12:33:11;4.80;99.90
47961;DHT22;33721;48.852;9.936;2023-02-01T12:43:28;4.90;99.90
47961;DHT22;33721;48.852;9.936;2023-02-01T12:46:06;4.90;99.90
47961;DHT22;33721;48.852;9.936;2023-02-01T12:51:40;4.90;99.90
47961;DHT22;33721;48.852;9.936;2023-02-01T12:54:20;4.90;99.90
47961;DHT22;33721;48.852;9.936;2023-02-01T12:56:48;4.80;99.90
47961;DHT22;33721;48.852;9.936;2023-02-01T13:02:35;4.70;99.90
47961;DHT22;33721;48.852;9.936;2023-02-01T13:05:48;4.70;99.90
47961;DHT22;33721;48.852;9.936;2023-02-01T13:08:16;4.70;99.90
47961;DHT22;33721;48.852;9.936;2023-02-01T13:11:03;4.60;99.90
47961;DHT22;33721;48.852;9.936;2023-02-01T13:16:47;4.60;99.90
47961;DHT22;33721;48.852;9.936;2023-02-01T13:19:21;4.60;99.90
47961;DHT22;33721;48.852;9.936;2023-02-01T13:22:02;4.60;99.90
47961;DHT22;33721;48.852;9.936;2023-02-01T13:24:40;4.60;99.90
47961;DHT22;33721;48.852;9.936;2023-02-01T13:27:11;4.60;99.90
47961;DHT22;33721;48.852;9.936;2023-02-01T13:29:45;4.70;99.90
47961;DHT22;33721;48.852;9.936;2023-02-01T13:32:35;4.70;99.90
47961;DHT22;33721;48.852;9.936;2023-02-01T13:35:23;4.70;99.90
47961;DHT22;33721;48.852;9.936;2023-02-01T13:44:10;4.80;99.90
47961;DHT22;33721;48.852;9.936;2023-02-01T13:46:42;4.80;99.90
47961;DHT22;33721;48.852;9.936;2023-02-01T13:49:27;4.90;99.90
47961;DHT22;33721;48.852;9.936;2023-02-01T13:51:58;4.80;99.90
47961;DHT22;33721;48.852;9.936;2023-02-01T13:56:49;4.80;99.90
47961;DHT22;33721;48.852;9.936;2023-02-01T14:10:48;4.80;99.90
47961;DHT22;33721;48.852;9.936;2023-02-01T14:16:12;4.80;99.90
47961;DHT22;33721;48.852;9.936;2023-02-01T14:23:46;4.70;99.90
47961;DHT22;33721;48.852;9.936;2023-02-01T14:26:24;4.70;99.90
47961;DHT22;33721;48.852;9.936;2023-02-01T14:29:18;4.70;99.90
47961;DHT22;33721;48.852;9.936;2023-02-01T14:32:11;4.70;99.90
47961;DHT22;33721;48.852;9.936;2023-02-01T14:39:57;4.70;99.90
47961;DHT22;33721;48.852;9.936;2023-02-01T14:55:57;4.70;99.90
47961;DHT22;33721;48.852;9.936;2023-02-01T15:01:27;4.80;99.90
47961;DHT22;33721;48.852;9.936;2023-02-01T15:06:40;4.80;99.90
47961;DHT22;33721;48.852;9.936;2023-02-01T15:09:19;4.80;99.90
47961;DHT22;33721;48.852;9.936;2023-02-01T15:14:38;4.80;99.90
47961;DHT22;33721;48.852;9.936;2023-02-01T15:19:59;4.70;99.90
47961;DHT22;33721;48.852;9.936;2023-02-01T15:22:27;4.70;99.90
47961;DHT22;33721;48.852;9.936;2023-02-01T15:24:54;4.60;99.90
47961;DHT22;33721;48.852;9.936;2023-02-01T15:27:20;4.60;99.90
47961;DHT22;33721;48.852;9.936;2023-02-01T15:29:46;4.70;99.90
47961;DHT22;33721;48.852;9.936;2023-02-01T15:32:31;4.70;99.90
47961;DHT22;33721;48.852;9.936;2023-02-01T15:34:58;4.60;99.90
47961;DHT22;33721;48.852;9.936;2023-02-01T15:37:26;4.70;99.90
47961;DHT22;33721;48.852;9.936;2023-02-01T15:42:51;4.60;99.90
47961;DHT22;33721;48.852;9.936;2023-02-01T15:45:19;4.60;99.90
47961;DHT22;33721;48.852;9.936;2023-02-01T15:47:50;4.70;99.90
47961;DHT22;33721;48.852;9.936;2023-02-01T15:50:20;4.70;99.90
47961;DHT22;33721;48.852;9.936;2023-02-01T15:52:51;4.70;99.90
47961;DHT22;33721;48.852;9.936;2023-02-01T15:57:49;4.70;99.90
47961;DHT22;33721;48.852;9.936;2023-02-01T16:00:24;4.70;99.90
47961;DHT22;33721;48.852;9.936;2023-02-01T16:10:30;4.70;99.90
47961;DHT22;33721;48.852;9.936;2023-02-01T16:12:55;4.70;99.90
47961;DHT22;33721;48.852;9.936;2023-02-01T16:15:26;4.70;99.90
47961;DHT22;33721;48.852;9.936;2023-02-01T16:17:52;4.70;99.90
47961;DHT22;33721;48.852;9.936;2023-02-01T16:20:18;4.70;99.90
47961;DHT22;33721;48.852;9.936;2023-02-01T16:22:43;4.80;99.90
47961;DHT22;33721;48.852;9.936;2023-02-01T16:25:09;4.80;99.90
47961;DHT22;33721;48.852;9.936;2023-02-01T16:27:35;4.80;99.90
47961;DHT22;33721;48.852;9.936;2023-02-01T16:30:00;4.80;99.90
47961;DHT22;33721;48.852;9.936;2023-02-01T16:32:26;4.80;99.90
47961;DHT22;33721;48.852;9.936;2023-02-01T16:34:52;4.80;99.90
47961;DHT22;33721;48.852;9.936;2023-02-01T16:37:24;4.80;99.90
47961;DHT22;33721;48.852;9.936;2023-02-01T16:39:50;4.80;99.90
47961;DHT22;33721;48.852;9.936;2023-02-01T16:42:16;4.90;99.90
47961;DHT22;33721;48.852;9.936;2023-02-01T16:44:42;4.90;99.90
47961;DHT22;33721;48.852;9.936;2023-02-01T16:47:19;4.90;99.90
47961;DHT22;33721;48.852;9.936;2023-02-01T16:49:46;4.90;99.90
47961;DHT22;33721;48.852;9.936;2023-02-01T16:52:18;4.90;99.90
47961;DHT22;33721;48.852;9.936;2023-02-01T16:54:44;4.90;99.90
47961;DHT22;33721;48.852;9.936;2023-02-01T16:57:15;4.90;99.90
47961;DHT22;33721;48.852;9.936;2023-02-01T16:59:42;4.80;99.90
47961;DHT22;33721;48.852;9.936;2023-02-01T17:02:14;4.90;99.90
47961;DHT22;33721;48.852;9.936;2023-02-01T17:04:41;4.90;99.90
47961;DHT22;33721;48.852;9.936;2023-02-01T17:07:11;4.90;99.90
47961;DHT22;33721;48.852;9.936;2023-02-01T17:09:37;4.90;99.90
47961;DHT22;33721;48.852;9.936;2023-02-01T17:12:04;4.80;99.90
47961;DHT22;33721;48.852;9.936;2023-02-01T17:14:32;4.90;99.90
47961;DHT22;33721;48.852;9.936;2023-02-01T17:17:00;4.90;99.90
47961;DHT22;33721;48.852;9.936;2023-02-01T17:19:26;4.90;99.90
47961;DHT22;33721;48.852;9.936;2023-02-01T17:21:53;4.90;99.90
47961;DHT22;33721;48.852;9.936;2023-02-01T17:24:24;4.90;99.90
47961;DHT22;33721;48.852;9.936;2023-02-01T17:26:50;4.90;99.90
47961;DHT22;33721;48.852;9.936;2023-02-01T17:29:16;4.80;99.90
47961;DHT22;33721;48.852;9.936;2023-02-01T17:31:48;4.80;99.90
47961;DHT22;33721;48.852;9.936;2023-02-01T17:34:15;4.70;99.90
47961;DHT22;33721;48.852;9.936;2023-02-01T17:36:42;4.70;99.90
47961;DHT22;33721;48.852;9.936;2023-02-01T17:39:09;4.70;99.90
47961;DHT22;33721;48.852;9.936;2023-02-01T17:41:36;4.70;99.90
47961;DHT22;33721;48.852;9.936;2023-02-01T17:44:03;4.70;99.90
47961;DHT22;33721;48.852;9.936;2023-02-01T17:46:30;4.70;99.90
47961;DHT22;33721;48.852;9.936;2023-02-01T17:48:56;4.70;99.90
47961;DHT22;33721;48.852;9.936;2023-02-01T17:51:26;4.70;99.90
47961;DHT22;33721;48.852;9.936;2023-02-01T17:53:53;4.70;99.90
47961;DHT22;33721;48.852;9.936;2023-02-01T17:56:23;4.70;99.90
47961;DHT22;33721;48.852;9.936;2023-02-01T17:58:49;4.70;99.90
47961;DHT22;33721;48.852;9.936;2023-02-01T18:01:20;4.70;99.90
47961;DHT22;33721;48.852;9.936;2023-02-01T18:03:46;4.80;99.90
47961;DHT22;33721;48.852;9.936;2023-02-01T18:06:15;4.80;99.90
47961;DHT22;33721;48.852;9.936;2023-02-01T18:08:41;4.80;99.90
47961;DHT22;33721;48.852;9.936;2023-02-01T18:11:19;4.70;99.90
47961;DHT22;33721;48.852;9.936;2023-02-01T18:13:45;4.70;99.90
47961;DHT22;33721;48.852;9.936;2023-02-01T18:16:24;4.70;99.90
47961;DHT22;33721;48.852;9.936;2023-02-01T18:18:50;4.80;99.90
47961;DHT22;33721;48.852;9.936;2023-02-01T18:21:17;4.70;99.90
47961;DHT22;33721;48.852;9.936;2023-02-01T18:23:43;4.70;99.90
47961;DHT22;33721;48.852;9.936;2023-02-01T18:26:11;4.70;99.90
47961;DHT22;33721;48.852;9.936;2023-02-01T18:28:37;4.70;99.90
47961;DHT22;33721;48.852;9.936;2023-02-01T18:31:04;4.70;99.90
47961;DHT22;33721;48.852;9.936;2023-02-01T18:33:30;4.70;99.90
47961;DHT22;33721;48.852;9.936;2023-02-01T18:35:56;4.70;99.90
47961;DHT22;33721;48.852;9.936;2023-02-01T18:38:22;4.70;99.90
47961;DHT22;33721;48.852;9.936;2023-02-01T18:40:52;4.70;99.90
47961;DHT22;33721;48.852;9.936;2023-02-01T18:43:19;4.70;99.90
47961;DHT22;33721;48.852;9.936;2023-02-01T18:45:45;4.70;99.90
47961;DHT22;33721;48.852;9.936;2023-02-01T18:48:12;4.70;99.90
47961;DHT22;33721;48.852;9.936;2023-02-01T18:50:40;4.60;99.90
47961;DHT22;33721;48.852;9.936;2023-02-01T18:53:13;4.60;99.90